CA-0682 weather

Brechin / Skywagon City Airfield
Brechin, Ontario, Canada

Public forecast

Using degrees Celsius for public forecast. Weather courtesy of forecast.io.

METAR (pilot weather report)

Closest report is Muskoka Airport, 24.5 nm (45.3 km) N. Retrieved 2019/05/21 09:00 UTC (58 minutes ago):

CYQA 210900Z AUTO 31011KT 9SM CLR 06/03 A2999 RMK SLP165

TAF (pilot weather forecast)

Forecast is more than 12 hours old.

Closest forecast is Muskoka Airport, 24.5 nm (45.3 km) N. Retrieved 2019/05/20 20:00 UTC (14 hours ago):

TAF CYQA 201938Z 2020/2102 24012G22KT P6SM OVC015 TEMPO 2020/2021 BKN008 FM202100 24010G20KT P6SM SCT015 OVC025 TEMPO 2021/2024 5SM -RA BR OVC015 FM210000 32010KT P6SM OVC040 RMK FCST BASED ON AUTO OBS. NXT FCST WILL BE ISSUED AT 211145Z